sensor_id;sensor_type;location;lat;lon;timestamp;temperature;humidity
423;DHT22;198;48.752;9.180;2023-05-27T00:01:48;15.30;58.40
423;DHT22;198;48.752;9.180;2023-05-27T00:04:13;15.40;58.40
423;DHT22;198;48.752;9.180;2023-05-27T00:06:39;15.40;57.50
423;DHT22;198;48.752;9.180;2023-05-27T00:09:04;15.50;57.20
423;DHT22;198;48.752;9.180;2023-05-27T00:11:30;15.60;57.20
423;DHT22;198;48.752;9.180;2023-05-27T00:13:55;15.70;56.50
423;DHT22;198;48.752;9.180;2023-05-27T00:16:21;15.80;56.80
423;DHT22;198;48.752;9.180;2023-05-27T00:18:47;15.90;56.20
423;DHT22;198;48.752;9.180;2023-05-27T00:21:13;15.90;56.40
423;DHT22;198;48.752;9.180;2023-05-27T00:23:39;15.80;56.40
423;DHT22;198;48.752;9.180;2023-05-27T00:26:05;15.80;56.30
423;DHT22;198;48.752;9.180;2023-05-27T00:28:30;15.70;56.50
423;DHT22;198;48.752;9.180;2023-05-27T00:30:57;15.70;56.50
423;DHT22;198;48.752;9.180;2023-05-27T00:33:23;15.60;56.70
423;DHT22;198;48.752;9.180;2023-05-27T00:35:48;15.50;57.20
423;DHT22;198;48.752;9.180;2023-05-27T00:38:14;15.30;57.00
423;DHT22;198;48.752;9.180;2023-05-27T00:40:40;15.30;57.20
423;DHT22;198;48.752;9.180;2023-05-27T00:43:06;15.20;58.10
423;DHT22;198;48.752;9.180;2023-05-27T00:45:31;15.10;57.90
423;DHT22;198;48.752;9.180;2023-05-27T00:47:58;15.00;58.30
423;DHT22;198;48.752;9.180;2023-05-27T00:50:24;15.00;58.50
423;DHT22;198;48.752;9.180;2023-05-27T00:52:51;15.00;58.50
423;DHT22;198;48.752;9.180;2023-05-27T00:55:21;14.90;59.30
423;DHT22;198;48.752;9.180;2023-05-27T00:57:46;14.80;58.80
423;DHT22;198;48.752;9.180;2023-05-27T01:00:13;14.80;59.00
423;DHT22;198;48.752;9.180;2023-05-27T01:02:39;14.80;59.40
423;DHT22;198;48.752;9.180;2023-05-27T01:05:12;14.70;59.20
423;DHT22;198;48.752;9.180;2023-05-27T01:15:43;14.60;61.20
423;DHT22;198;48.752;9.180;2023-05-27T01:18:11;14.50;61.30
423;DHT22;198;48.752;9.180;2023-05-27T01:20:39;14.50;61.60
423;DHT22;198;48.752;9.180;2023-05-27T01:23:07;14.40;61.80
423;DHT22;198;48.752;9.180;2023-05-27T01:25:33;14.40;62.00
423;DHT22;198;48.752;9.180;2023-05-27T01:27:59;14.40;62.30
423;DHT22;198;48.752;9.180;2023-05-27T01:30:24;14.40;62.50
423;DHT22;198;48.752;9.180;2023-05-27T01:32:57;14.30;62.60
423;DHT22;198;48.752;9.180;2023-05-27T01:35:31;14.30;62.90
423;DHT22;198;48.752;9.180;2023-05-27T01:38:03;14.30;62.90
423;DHT22;198;48.752;9.180;2023-05-27T01:40:31;14.30;64.10
423;DHT22;198;48.752;9.180;2023-05-27T01:46:18;14.20;64.10
423;DHT22;198;48.752;9.180;2023-05-27T01:48:43;14.10;64.60
423;DHT22;198;48.752;9.180;2023-05-27T01:51:09;14.10;65.40
423;DHT22;198;48.752;9.180;2023-05-27T01:53:35;14.10;65.90
423;DHT22;198;48.752;9.180;2023-05-27T01:56:00;14.00;65.90
423;DHT22;198;48.752;9.180;2023-05-27T01:58:26;14.00;65.50
423;DHT22;198;48.752;9.180;2023-05-27T02:00:52;14.00;66.50
423;DHT22;198;48.752;9.180;2023-05-27T02:03:17;14.00;67.00
423;DHT22;198;48.752;9.180;2023-05-27T02:05:43;13.90;66.90
423;DHT22;198;48.752;9.180;2023-05-27T02:08:10;13.90;66.80
423;DHT22;198;48.752;9.180;2023-05-27T02:10:35;13.90;67.10
423;DHT22;198;48.752;9.180;2023-05-27T02:13:01;13.90;67.00
423;DHT22;198;48.752;9.180;2023-05-27T02:15:26;13.90;67.40
423;DHT22;198;48.752;9.180;2023-05-27T02:17:52;13.80;67.80
423;DHT22;198;48.752;9.180;2023-05-27T02:20:21;13.80;68.70
423;DHT22;198;48.752;9.180;2023-05-27T02:22:49;13.80;68.50
423;DHT22;198;48.752;9.180;2023-05-27T02:25:15;13.80;69.00
423;DHT22;198;48.752;9.180;2023-05-27T02:27:40;13.70;70.20
423;DHT22;198;48.752;9.180;2023-05-27T02:30:07;13.70;70.30
423;DHT22;198;48.752;9.180;2023-05-27T02:32:33;13.60;71.30
423;DHT22;198;48.752;9.180;2023-05-27T02:34:58;13.60;70.60
423;DHT22;198;48.752;9.180;2023-05-27T02:37:24;13.60;71.70
423;DHT22;198;48.752;9.180;2023-05-27T02:39:52;13.50;73.10
423;DHT22;198;48.752;9.180;2023-05-27T02:42:18;13.50;73.70
423;DHT22;198;48.752;9.180;2023-05-27T02:44:43;13.50;73.70
423;DHT22;198;48.752;9.180;2023-05-27T02:47:09;13.50;74.50
423;DHT22;198;48.752;9.180;2023-05-27T02:49:34;13.40;74.10
423;DHT22;198;48.752;9.180;2023-05-27T02:52:00;13.40;74.70
423;DHT22;198;48.752;9.180;2023-05-27T02:54:25;13.30;74.80
423;DHT22;198;48.752;9.180;2023-05-27T02:56:51;13.30;74.90
423;DHT22;198;48.752;9.180;2023-05-27T02:59:17;13.30;75.40
423;DHT22;198;48.752;9.180;2023-05-27T03:01:42;13.30;75.90
423;DHT22;198;48.752;9.180;2023-05-27T03:04:08;13.30;76.60
423;DHT22;198;48.752;9.180;2023-05-27T03:06:33;13.30;77.30
423;DHT22;198;48.752;9.180;2023-05-27T03:08:59;13.20;78.30
423;DHT22;198;48.752;9.180;2023-05-27T03:11:25;13.20;78.30
423;DHT22;198;48.752;9.180;2023-05-27T03:13:51;13.20;79.00
423;DHT22;198;48.752;9.180;2023-05-27T03:16:17;13.20;79.70
423;DHT22;198;48.752;9.180;2023-05-27T03:18:45;13.20;80.70
423;DHT22;198;48.752;9.180;2023-05-27T03:21:11;13.10;81.40
423;DHT22;198;48.752;9.180;2023-05-27T03:23:36;13.10;81.40
423;DHT22;198;48.752;9.180;2023-05-27T03:26:02;13.10;81.60
423;DHT22;198;48.752;9.180;2023-05-27T03:28:27;13.10;82.20
423;DHT22;198;48.752;9.180;2023-05-27T03:30:53;13.00;81.80
423;DHT22;198;48.752;9.180;2023-05-27T03:33:24;13.00;82.90
423;DHT22;198;48.752;9.180;2023-05-27T03:35:50;13.00;83.50
423;DHT22;198;48.752;9.180;2023-05-27T03:38:16;13.00;83.30
423;DHT22;198;48.752;9.180;2023-05-27T03:40:41;13.00;84.00
423;DHT22;198;48.752;9.180;2023-05-27T03:43:07;13.00;84.10
423;DHT22;198;48.752;9.180;2023-05-27T03:45:32;13.00;84.60
423;DHT22;198;48.752;9.180;2023-05-27T03:47:58;13.00;85.90
423;DHT22;198;48.752;9.180;2023-05-27T03:50:23;13.00;86.40
423;DHT22;198;48.752;9.180;2023-05-27T03:52:49;13.00;86.70
423;DHT22;198;48.752;9.180;2023-05-27T03:55:15;13.10;87.60
423;DHT22;198;48.752;9.180;2023-05-27T03:57:42;13.10;88.20
423;DHT22;198;48.752;9.180;2023-05-27T04:00:08;13.10;88.40
423;DHT22;198;48.752;9.180;2023-05-27T04:02:36;13.10;88.80
423;DHT22;198;48.752;9.180;2023-05-27T04:05:02;13.10;89.70
423;DHT22;198;48.752;9.180;2023-05-27T04:07:28;13.10;89.90
423;DHT22;198;48.752;9.180;2023-05-27T04:09:54;13.20;89.80
423;DHT22;198;48.752;9.180;2023-05-27T04:12:19;13.20;89.30
423;DHT22;198;48.752;9.180;2023-05-27T04:14:46;13.20;89.60
423;DHT22;198;48.752;9.180;2023-05-27T04:17:11;13.30;89.70
423;DHT22;198;48.752;9.180;2023-05-27T04:19:38;13.30;89.40
423;DHT22;198;48.752;9.180;2023-05-27T04:22:04;13.30;89.40
423;DHT22;198;48.752;9.180;2023-05-27T04:24:30;13.30;90.00
423;DHT22;198;48.752;9.180;2023-05-27T04:26:55;13.40;89.50
423;DHT22;198;48.752;9.180;2023-05-27T04:29:21;13.40;89.90
423;DHT22;198;48.752;9.180;2023-05-27T04:31:48;13.40;90.60
423;DHT22;198;48.752;9.180;2023-05-27T04:34:13;13.50;90.70
423;DHT22;198;48.752;9.180;2023-05-27T04:36:39;13.50;90.80
423;DHT22;198;48.752;9.180;2023-05-27T04:39:04;13.50;90.70
423;DHT22;198;48.752;9.180;2023-05-27T04:41:30;13.60;90.80
423;DHT22;198;48.752;9.180;2023-05-27T04:43:58;13.60;91.10
423;DHT22;198;48.752;9.180;2023-05-27T04:46:26;13.60;91.00
423;DHT22;198;48.752;9.180;2023-05-27T04:48:52;13.70;91.00
423;DHT22;198;48.752;9.180;2023-05-27T04:51:18;13.70;91.00
423;DHT22;198;48.752;9.180;2023-05-27T04:53:44;13.80;90.90
423;DHT22;198;48.752;9.180;2023-05-27T04:56:11;13.80;91.30
423;DHT22;198;48.752;9.180;2023-05-27T04:58:39;13.90;91.30
423;DHT22;198;48.752;9.180;2023-05-27T05:01:05;13.90;91.60
423;DHT22;198;48.752;9.180;2023-05-27T05:03:31;14.00;91.60
423;DHT22;198;48.752;9.180;2023-05-27T05:06:05;14.00;90.90
423;DHT22;198;48.752;9.180;2023-05-27T05:08:31;14.10;90.60
423;DHT22;198;48.752;9.180;2023-05-27T05:10:56;14.20;90.60
423;DHT22;198;48.752;9.180;2023-05-27T05:13:22;14.20;90.20
423;DHT22;198;48.752;9.180;2023-05-27T05:15:47;14.30;90.00
423;DHT22;198;48.752;9.180;2023-05-27T05:18:13;14.30;89.90
423;DHT22;198;48.752;9.180;2023-05-27T05:20:39;14.40;89.10
423;DHT22;198;48.752;9.180;2023-05-27T05:23:07;14.50;89.80
423;DHT22;198;48.752;9.180;2023-05-27T05:25:33;14.50;88.70
423;DHT22;198;48.752;9.180;2023-05-27T05:28:04;14.60;88.20
423;DHT22;198;48.752;9.180;2023-05-27T05:30:30;14.70;88.40
423;DHT22;198;48.752;9.180;2023-05-27T05:32:57;14.70;87.70
423;DHT22;198;48.752;9.180;2023-05-27T05:35:22;14.80;87.20
423;DHT22;198;48.752;9.180;2023-05-27T05:37:48;14.80;86.20
423;DHT22;198;48.752;9.180;2023-05-27T05:40:14;14.90;85.60
423;DHT22;198;48.752;9.180;2023-05-27T05:42:40;15.00;86.30
423;DHT22;198;48.752;9.180;2023-05-27T05:45:06;15.00;87.10
423;DHT22;198;48.752;9.180;2023-05-27T05:47:32;15.10;87.10
423;DHT22;198;48.752;9.180;2023-05-27T05:49:57;15.20;86.20
423;DHT22;198;48.752;9.180;2023-05-27T05:52:23;15.20;86.40
423;DHT22;198;48.752;9.180;2023-05-27T05:54:48;15.30;85.90
423;DHT22;198;48.752;9.180;2023-05-27T05:57:15;15.30;85.00
423;DHT22;198;48.752;9.180;2023-05-27T05:59:41;15.40;85.20
423;DHT22;198;48.752;9.180;2023-05-27T06:02:06;15.40;83.50
423;DHT22;198;48.752;9.180;2023-05-27T06:04:32;15.40;83.40
423;DHT22;198;48.752;9.180;2023-05-27T06:06:57;15.50;83.20
423;DHT22;198;48.752;9.180;2023-05-27T06:09:23;15.50;82.20
423;DHT22;198;48.752;9.180;2023-05-27T06:11:48;15.60;82.30
423;DHT22;198;48.752;9.180;2023-05-27T06:14:14;15.60;82.30
423;DHT22;198;48.752;9.180;2023-05-27T06:16:40;15.70;81.70
423;DHT22;198;48.752;9.180;2023-05-27T06:19:05;15.70;81.50
423;DHT22;198;48.752;9.180;2023-05-27T06:21:31;15.80;81.90
423;DHT22;198;48.752;9.180;2023-05-27T06:23:58;15.90;81.30
423;DHT22;198;48.752;9.180;2023-05-27T06:26:24;16.00;80.60
423;DHT22;198;48.752;9.180;2023-05-27T06:28:51;16.00;79.70
423;DHT22;198;48.752;9.180;2023-05-27T06:31:16;16.10;79.30
423;DHT22;198;48.752;9.180;2023-05-27T06:33:42;16.20;79.30
423;DHT22;198;48.752;9.180;2023-05-27T06:36:07;16.30;79.20
423;DHT22;198;48.752;9.180;2023-05-27T06:38:33;16.30;78.40
423;DHT22;198;48.752;9.180;2023-05-27T06:40:58;16.40;77.60
423;DHT22;198;48.752;9.180;2023-05-27T06:43:24;16.50;77.30
423;DHT22;198;48.752;9.180;2023-05-27T06:45:49;16.60;77.20
423;DHT22;198;48.752;9.180;2023-05-27T06:48:15;16.70;77.60
423;DHT22;198;48.752;9.180;2023-05-27T06:50:40;16.80;77.10
423;DHT22;198;48.752;9.180;2023-05-27T06:53:06;16.80;75.30
423;DHT22;198;48.752;9.180;2023-05-27T06:55:31;16.90;74.30
423;DHT22;198;48.752;9.180;2023-05-27T06:57:57;16.90;74.90
423;DHT22;198;48.752;9.180;2023-05-27T07:00:22;17.00;74.80
423;DHT22;198;48.752;9.180;2023-05-27T07:02:48;17.10;74.60
423;DHT22;198;48.752;9.180;2023-05-27T07:05:13;17.20;74.50
423;DHT22;198;48.752;9.180;2023-05-27T07:07:38;17.30;73.70
423;DHT22;198;48.752;9.180;2023-05-27T07:10:04;17.30;73.90
423;DHT22;198;48.752;9.180;2023-05-27T07:12:30;17.40;73.70
423;DHT22;198;48.752;9.180;2023-05-27T07:14:56;17.50;72.20
423;DHT22;198;48.752;9.180;2023-05-27T07:17:21;17.50;71.50
423;DHT22;198;48.752;9.180;2023-05-27T07:19:47;17.60;71.80
423;DHT22;198;48.752;9.180;2023-05-27T07:22:12;17.70;70.70
423;DHT22;198;48.752;9.180;2023-05-27T07:24:38;17.80;70.70
423;DHT22;198;48.752;9.180;2023-05-27T07:27:03;17.90;70.60
423;DHT22;198;48.752;9.180;2023-05-27T07:29:29;18.00;69.20
423;DHT22;198;48.752;9.180;2023-05-27T07:31:55;18.00;68.90
423;DHT22;198;48.752;9.180;2023-05-27T07:34:20;18.10;68.90
423;DHT22;198;48.752;9.180;2023-05-27T07:36:47;18.30;69.00
423;DHT22;198;48.752;9.180;2023-05-27T07:39:13;18.40;68.80
423;DHT22;198;48.752;9.180;2023-05-27T07:41:38;18.50;69.00
423;DHT22;198;48.752;9.180;2023-05-27T07:44:04;18.60;67.60
423;DHT22;198;48.752;9.180;2023-05-27T07:46:29;18.70;67.90
423;DHT22;198;48.752;9.180;2023-05-27T07:48:55;18.70;66.10
423;DHT22;198;48.752;9.180;2023-05-27T07:51:21;18.80;66.40
423;DHT22;198;48.752;9.180;2023-05-27T07:53:47;18.90;64.80
423;DHT22;198;48.752;9.180;2023-05-27T07:56:13;18.90;64.80
423;DHT22;198;48.752;9.180;2023-05-27T07:58:39;18.90;65.40
423;DHT22;198;48.752;9.180;2023-05-27T08:01:04;19.00;65.00
423;DHT22;198;48.752;9.180;2023-05-27T08:03:30;19.10;65.70
423;DHT22;198;48.752;9.180;2023-05-27T08:05:56;19.20;64.10
423;DHT22;198;48.752;9.180;2023-05-27T08:08:21;19.40;63.70
423;DHT22;198;48.752;9.180;2023-05-27T08:10:46;19.50;64.40
423;DHT22;198;48.752;9.180;2023-05-27T08:13:12;19.50;62.30
423;DHT22;198;48.752;9.180;2023-05-27T08:15:38;19.60;62.50
423;DHT22;198;48.752;9.180;2023-05-27T08:18:03;19.80;63.30
423;DHT22;198;48.752;9.180;2023-05-27T08:20:28;19.90;62.90
423;DHT22;198;48.752;9.180;2023-05-27T08:22:54;20.00;59.90
423;DHT22;198;48.752;9.180;2023-05-27T08:25:20;20.10;60.30
423;DHT22;198;48.752;9.180;2023-05-27T08:27:53;20.40;61.20
423;DHT22;198;48.752;9.180;2023-05-27T08:30:19;20.60;60.30
423;DHT22;198;48.752;9.180;2023-05-27T08:32:45;20.80;59.90
423;DHT22;198;48.752;9.180;2023-05-27T08:35:11;21.00;58.70
423;DHT22;198;48.752;9.180;2023-05-27T08:37:37;21.00;58.40
423;DHT22;198;48.752;9.180;2023-05-27T08:40:04;21.20;59.00
423;DHT22;198;48.752;9.180;2023-05-27T08:42:33;21.30;57.50
423;DHT22;198;48.752;9.180;2023-05-27T08:44:59;21.30;56.20
423;DHT22;198;48.752;9.180;2023-05-27T08:47:28;21.30;56.30
423;DHT22;198;48.752;9.180;2023-05-27T08:49:56;21.50;57.10
423;DHT22;198;48.752;9.180;2023-05-27T08:52:23;21.60;57.00
423;DHT22;198;48.752;9.180;2023-05-27T08:54:50;21.70;56.00
423;DHT22;198;48.752;9.180;2023-05-27T08:57:19;21.80;56.20
423;DHT22;198;48.752;9.180;2023-05-27T08:59:46;21.90;56.20
423;DHT22;198;48.752;9.180;2023-05-27T09:02:12;22.10;55.50
423;DHT22;198;48.752;9.180;2023-05-27T09:04:41;22.10;55.10
423;DHT22;198;48.752;9.180;2023-05-27T09:07:08;22.10;53.40
423;DHT22;198;48.752;9.180;2023-05-27T09:09:33;22.10;55.30
423;DHT22;198;48.752;9.180;2023-05-27T09:12:01;22.20;56.10
423;DHT22;198;48.752;9.180;2023-05-27T09:14:28;22.40;56.40
423;DHT22;198;48.752;9.180;2023-05-27T09:16:54;22.30;53.10
423;DHT22;198;48.752;9.180;2023-05-27T09:19:20;22.40;54.70
423;DHT22;198;48.752;9.180;2023-05-27T09:21:47;22.60;55.00
423;DHT22;198;48.752;9.180;2023-05-27T09:24:12;22.80;53.00
423;DHT22;198;48.752;9.180;2023-05-27T09:26:38;22.90;52.30
423;DHT22;198;48.752;9.180;2023-05-27T09:29:07;23.20;52.70
423;DHT22;198;48.752;9.180;2023-05-27T09:31:40;23.40;52.40
423;DHT22;198;48.752;9.180;2023-05-27T09:34:13;23.70;51.90
423;DHT22;198;48.752;9.180;2023-05-27T09:36:43;24.10;52.60
423;DHT22;198;48.752;9.180;2023-05-27T09:39:10;24.50;52.70
423;DHT22;198;48.752;9.180;2023-05-27T09:41:36;25.00;51.10
423;DHT22;198;48.752;9.180;2023-05-27T09:44:04;25.40;50.10
423;DHT22;198;48.752;9.180;2023-05-27T09:46:32;26.10;48.80
423;DHT22;198;48.752;9.180;2023-05-27T09:48:58;27.20;47.20
423;DHT22;198;48.752;9.180;2023-05-27T09:51:26;28.50;45.80
423;DHT22;198;48.752;9.180;2023-05-27T09:53:53;30.00;43.60
423;DHT22;198;48.752;9.180;2023-05-27T09:56:23;31.30;40.60
423;DHT22;198;48.752;9.180;2023-05-27T09:58:49;32.50;37.80
423;DHT22;198;48.752;9.180;2023-05-27T10:01:15;33.40;36.00
423;DHT22;198;48.752;9.180;2023-05-27T10:03:43;34.60;34.00
423;DHT22;198;48.752;9.180;2023-05-27T10:06:12;35.10;31.40
423;DHT22;198;48.752;9.180;2023-05-27T10:08:42;36.10;32.00
423;DHT22;198;48.752;9.180;2023-05-27T10:11:10;37.50;29.90
423;DHT22;198;48.752;9.180;2023-05-27T10:13:36;38.90;28.60
423;DHT22;198;48.752;9.180;2023-05-27T10:16:02;39.50;27.50
423;DHT22;198;48.752;9.180;2023-05-27T10:18:29;39.90;26.90
423;DHT22;198;48.752;9.180;2023-05-27T10:20:57;40.60;25.30
423;DHT22;198;48.752;9.180;2023-05-27T10:23:26;41.60;25.80
423;DHT22;198;48.752;9.180;2023-05-27T10:25:53;42.90;24.70
423;DHT22;198;48.752;9.180;2023-05-27T10:31:04;45.40;22.90
423;DHT22;198;48.752;9.180;2023-05-27T10:33:33;45.90;22.00
423;DHT22;198;48.752;9.180;2023-05-27T10:38:36;47.20;21.20
423;DHT22;198;48.752;9.180;2023-05-27T10:41:03;48.20;20.70
423;DHT22;198;48.752;9.180;2023-05-27T10:43:29;49.00;19.90
423;DHT22;198;48.752;9.180;2023-05-27T10:46:07;49.20;19.70
423;DHT22;198;48.752;9.180;2023-05-27T10:48:33;49.30;19.60
423;DHT22;198;48.752;9.180;2023-05-27T10:50:59;49.00;19.30
423;DHT22;198;48.752;9.180;2023-05-27T10:53:26;49.70;19.80
423;DHT22;198;48.752;9.180;2023-05-27T10:55:52;50.00;18.60
423;DHT22;198;48.752;9.180;2023-05-27T10:58:18;51.10;19.30
423;DHT22;198;48.752;9.180;2023-05-27T11:00:47;52.10;18.50
423;DHT22;198;48.752;9.180;2023-05-27T11:03:21;53.00;18.20
423;DHT22;198;48.752;9.180;2023-05-27T11:06:08;53.80;18.20
423;DHT22;198;48.752;9.180;2023-05-27T11:08:34;54.30;17.20
423;DHT22;198;48.752;9.180;2023-05-27T11:11:06;53.10;16.90
423;DHT22;198;48.752;9.180;2023-05-27T11:13:32;53.00;17.40
423;DHT22;198;48.752;9.180;2023-05-27T11:15:59;52.10;16.80
423;DHT22;198;48.752;9.180;2023-05-27T11:18:25;52.70;18.20
423;DHT22;198;48.752;9.180;2023-05-27T11:20:50;53.70;17.70
423;DHT22;198;48.752;9.180;2023-05-27T11:23:16;54.50;17.40
423;DHT22;198;48.752;9.180;2023-05-27T11:25:44;54.90;16.10
423;DHT22;198;48.752;9.180;2023-05-27T11:28:16;55.60;16.70
423;DHT22;198;48.752;9.180;2023-05-27T11:30:42;55.30;15.80
423;DHT22;198;48.752;9.180;2023-05-27T11:33:08;55.40;16.30
423;DHT22;198;48.752;9.180;2023-05-27T11:35:34;55.70;16.10
423;DHT22;198;48.752;9.180;2023-05-27T11:37:59;55.80;15.90
423;DHT22;198;48.752;9.180;2023-05-27T11:40:34;56.30;16.10
423;DHT22;198;48.752;9.180;2023-05-27T11:43:00;57.10;15.80
423;DHT22;198;48.752;9.180;2023-05-27T11:45:26;57.40;15.90
423;DHT22;198;48.752;9.180;2023-05-27T11:47:52;57.70;15.70
423;DHT22;198;48.752;9.180;2023-05-27T11:50:20;58.10;15.60
423;DHT22;198;48.752;9.180;2023-05-27T11:52:53;57.40;14.40
423;DHT22;198;48.752;9.180;2023-05-27T11:55:19;57.10;15.10
423;DHT22;198;48.752;9.180;2023-05-27T11:57:45;57.00;15.20
423;DHT22;198;48.752;9.180;2023-05-27T12:00:11;56.70;15.70
423;DHT22;198;48.752;9.180;2023-05-27T12:02:37;57.10;15.50
423;DHT22;198;48.752;9.180;2023-05-27T12:05:02;56.80;14.90
423;DHT22;198;48.752;9.180;2023-05-27T12:07:28;56.90;15.70
423;DHT22;198;48.752;9.180;2023-05-27T12:09:54;56.80;15.00
423;DHT22;198;48.752;9.180;2023-05-27T12:12:19;56.50;15.60
423;DHT22;198;48.752;9.180;2023-05-27T12:14:45;57.00;15.60
423;DHT22;198;48.752;9.180;2023-05-27T12:17:11;58.00;15.90
423;DHT22;198;48.752;9.180;2023-05-27T12:19:36;58.50;14.90
423;DHT22;198;48.752;9.180;2023-05-27T12:22:02;59.00;14.80
423;DHT22;198;48.752;9.180;2023-05-27T12:24:28;59.10;14.30
423;DHT22;198;48.752;9.180;2023-05-27T12:26:53;57.70;14.20
423;DHT22;198;48.752;9.180;2023-05-27T12:29:19;56.30;14.80
423;DHT22;198;48.752;9.180;2023-05-27T12:31:46;56.30;14.70
423;DHT22;198;48.752;9.180;2023-05-27T12:34:12;55.40;15.30
423;DHT22;198;48.752;9.180;2023-05-27T12:36:38;55.80;15.30
423;DHT22;198;48.752;9.180;2023-05-27T12:39:03;56.50;15.30
423;DHT22;198;48.752;9.180;2023-05-27T12:41:30;57.60;15.30
423;DHT22;198;48.752;9.180;2023-05-27T12:43:55;57.90;14.40
423;DHT22;198;48.752;9.180;2023-05-27T12:46:21;58.10;14.90
423;DHT22;198;48.752;9.180;2023-05-27T12:48:46;58.00;14.60
423;DHT22;198;48.752;9.180;2023-05-27T12:51:12;57.20;14.50
423;DHT22;198;48.752;9.180;2023-05-27T12:53:37;56.80;14.80
423;DHT22;198;48.752;9.180;2023-05-27T12:56:03;56.40;13.90
423;DHT22;198;48.752;9.180;2023-05-27T12:58:29;55.40;14.40
423;DHT22;198;48.752;9.180;2023-05-27T13:00:54;54.60;14.50
423;DHT22;198;48.752;9.180;2023-05-27T13:03:20;55.00;15.40
423;DHT22;198;48.752;9.180;2023-05-27T13:05:46;55.50;15.50
423;DHT22;198;48.752;9.180;2023-05-27T13:08:11;55.30;15.20
423;DHT22;198;48.752;9.180;2023-05-27T13:10:37;55.90;15.20
423;DHT22;198;48.752;9.180;2023-05-27T13:13:03;56.00;15.10
423;DHT22;198;48.752;9.180;2023-05-27T13:15:29;56.10;15.20
423;DHT22;198;48.752;9.180;2023-05-27T13:17:54;56.60;15.30
423;DHT22;198;48.752;9.180;2023-05-27T13:20:22;56.80;15.30
423;DHT22;198;48.752;9.180;2023-05-27T13:22:48;56.80;15.10
423;DHT22;198;48.752;9.180;2023-05-27T13:25:14;57.00;14.40
423;DHT22;198;48.752;9.180;2023-05-27T13:27:41;57.40;14.70
423;DHT22;198;48.752;9.180;2023-05-27T13:30:11;57.70;15.00
423;DHT22;198;48.752;9.180;2023-05-27T13:32:37;57.70;14.90
423;DHT22;198;48.752;9.180;2023-05-27T13:35:04;57.70;14.30
423;DHT22;198;48.752;9.180;2023-05-27T13:37:29;56.60;13.60
423;DHT22;198;48.752;9.180;2023-05-27T13:39:55;56.40;14.20
423;DHT22;198;48.752;9.180;2023-05-27T13:42:22;56.60;14.10
423;DHT22;198;48.752;9.180;2023-05-27T13:44:48;56.60;14.30
423;DHT22;198;48.752;9.180;2023-05-27T13:47:13;56.50;14.10
423;DHT22;198;48.752;9.180;2023-05-27T13:49:39;55.60;14.40
423;DHT22;198;48.752;9.180;2023-05-27T13:52:05;55.60;14.60
423;DHT22;198;48.752;9.180;2023-05-27T13:54:30;55.60;14.40
423;DHT22;198;48.752;9.180;2023-05-27T13:56:56;55.80;14.90
423;DHT22;198;48.752;9.180;2023-05-27T13:59:22;54.90;14.60
423;DHT22;198;48.752;9.180;2023-05-27T14:01:47;54.20;14.60
423;DHT22;198;48.752;9.180;2023-05-27T14:04:15;54.00;14.80
423;DHT22;198;48.752;9.180;2023-05-27T14:06:40;54.70;15.20
423;DHT22;198;48.752;9.180;2023-05-27T14:09:06;55.10;14.40
423;DHT22;198;48.752;9.180;2023-05-27T14:11:31;55.80;14.70
423;DHT22;198;48.752;9.180;2023-05-27T14:13:57;56.30;14.30
423;DHT22;198;48.752;9.180;2023-05-27T14:16:22;56.60;14.70
423;DHT22;198;48.752;9.180;2023-05-27T14:18:49;57.00;14.70
423;DHT22;198;48.752;9.180;2023-05-27T14:21:15;57.20;13.90
423;DHT22;198;48.752;9.180;2023-05-27T14:23:41;56.60;14.30
423;DHT22;198;48.752;9.180;2023-05-27T14:26:06;56.00;14.00
423;DHT22;198;48.752;9.180;2023-05-27T14:28:32;55.20;13.70
423;DHT22;198;48.752;9.180;2023-05-27T14:30:58;53.80;14.10
423;DHT22;198;48.752;9.180;2023-05-27T14:33:23;53.40;14.00
423;DHT22;198;48.752;9.180;2023-05-27T14:35:49;52.40;13.90
423;DHT22;198;48.752;9.180;2023-05-27T14:38:16;52.60;14.50
423;DHT22;198;48.752;9.180;2023-05-27T14:40:42;52.60;14.40
423;DHT22;198;48.752;9.180;2023-05-27T14:43:09;52.80;14.80
423;DHT22;198;48.752;9.180;2023-05-27T14:45:35;53.00;14.50
423;DHT22;198;48.752;9.180;2023-05-27T14:48:00;53.40;14.80
423;DHT22;198;48.752;9.180;2023-05-27T14:50:26;53.50;14.50
423;DHT22;198;48.752;9.180;2023-05-27T14:52:53;53.20;14.50
423;DHT22;198;48.752;9.180;2023-05-27T14:55:18;53.20;14.10
423;DHT22;198;48.752;9.180;2023-05-27T14:57:45;53.10;14.40
423;DHT22;198;48.752;9.180;2023-05-27T15:00:10;51.40;13.60
423;DHT22;198;48.752;9.180;2023-05-27T15:02:37;50.90;13.70
423;DHT22;198;48.752;9.180;2023-05-27T15:05:04;50.60;13.90
423;DHT22;198;48.752;9.180;2023-05-27T15:07:33;50.80;14.80
423;DHT22;198;48.752;9.180;2023-05-27T15:09:59;50.30;14.50
423;DHT22;198;48.752;9.180;2023-05-27T15:12:27;50.60;14.60
423;DHT22;198;48.752;9.180;2023-05-27T15:14:53;50.50;13.60
423;DHT22;198;48.752;9.180;2023-05-27T15:17:18;51.00;14.20
423;DHT22;198;48.752;9.180;2023-05-27T15:19:44;51.60;14.70
423;DHT22;198;48.752;9.180;2023-05-27T15:22:09;51.90;14.70
423;DHT22;198;48.752;9.180;2023-05-27T15:24:35;52.00;14.40
423;DHT22;198;48.752;9.180;2023-05-27T15:27:01;52.20;14.20
423;DHT22;198;48.752;9.180;2023-05-27T15:29:28;52.10;14.30
423;DHT22;198;48.752;9.180;2023-05-27T15:31:54;51.40;14.20
423;DHT22;198;48.752;9.180;2023-05-27T15:34:19;51.00;14.30
423;DHT22;198;48.752;9.180;2023-05-27T15:36:45;50.80;14.70
423;DHT22;198;48.752;9.180;2023-05-27T15:39:10;50.60;15.10
423;DHT22;198;48.752;9.180;2023-05-27T15:41:36;50.60;14.90
423;DHT22;198;48.752;9.180;2023-05-27T15:44:02;50.20;14.90
423;DHT22;198;48.752;9.180;2023-05-27T15:46:27;49.80;15.00
423;DHT22;198;48.752;9.180;2023-05-27T15:48:53;49.40;15.20
423;DHT22;198;48.752;9.180;2023-05-27T15:51:20;49.10;15.80
423;DHT22;198;48.752;9.180;2023-05-27T15:53:45;49.30;15.80
423;DHT22;198;48.752;9.180;2023-05-27T15:56:11;49.10;15.70
423;DHT22;198;48.752;9.180;2023-05-27T15:58:37;48.90;15.50
423;DHT22;198;48.752;9.180;2023-05-27T16:01:02;48.70;15.70
423;DHT22;198;48.752;9.180;2023-05-27T16:03:28;48.50;15.50
423;DHT22;198;48.752;9.180;2023-05-27T16:05:54;48.70;15.60
423;DHT22;198;48.752;9.180;2023-05-27T16:08:19;48.80;15.60
423;DHT22;198;48.752;9.180;2023-05-27T16:10:48;48.60;15.70
423;DHT22;198;48.752;9.180;2023-05-27T16:13:15;48.10;16.00
423;DHT22;198;48.752;9.180;2023-05-27T16:15:40;47.40;15.50
423;DHT22;198;48.752;9.180;2023-05-27T16:18:06;47.30;16.60
423;DHT22;198;48.752;9.180;2023-05-27T16:20:31;47.20;16.70
423;DHT22;198;48.752;9.180;2023-05-27T16:22:57;47.10;16.40
423;DHT22;198;48.752;9.180;2023-05-27T16:25:22;46.50;16.20
423;DHT22;198;48.752;9.180;2023-05-27T16:27:48;46.00;16.30
423;DHT22;198;48.752;9.180;2023-05-27T16:30:14;45.70;16.70
423;DHT22;198;48.752;9.180;2023-05-27T16:32:39;45.40;16.50
423;DHT22;198;48.752;9.180;2023-05-27T16:35:05;45.10;16.90
423;DHT22;198;48.752;9.180;2023-05-27T16:37:31;44.60;16.90
423;DHT22;198;48.752;9.180;2023-05-27T16:39:56;44.20;17.00
423;DHT22;198;48.752;9.180;2023-05-27T16:42:22;43.80;17.00
423;DHT22;198;48.752;9.180;2023-05-27T16:44:47;43.50;17.30